Terminal Aerodrome Forecast
Issued by NWS Cleveland, OH

Home | Current Version | Previous Version | Text Only | Print | Product List | Glossary On
Versions: 1 2 3 4 5 6 7 8 9 10 11 12 13 14 15 16 17 18 19 20 21 22 23 24 25 26 27
000
FTUS41 KCLE 231400 AAB
TAFMFD
TAF AMD
KMFD 231449Z 2315/2412 05005KT P6SM SCT020
     FM231800 03007KT P6SM BKN035
     FM240000 05005KT P6SM SCT040
     FM240500 07004KT 3SM BR SCT002
     FM240900 07004KT 1/2SM FG VV002=

USA.gov is the U.S. government's official web portal to all federal, state and local government web resources and services.